sensor_id;sensor_type;location;lat;lon;timestamp;temperature;humidity
22436;DHT22;11385;50.822;4.324;2024-01-30T00:00:15;11.40;99.90
22436;DHT22;11385;50.822;4.324;2024-01-30T00:02:43;11.40;99.90
22436;DHT22;11385;50.822;4.324;2024-01-30T00:05:11;11.40;99.90
22436;DHT22;11385;50.822;4.324;2024-01-30T00:07:40;11.40;99.90
22436;DHT22;11385;50.822;4.324;2024-01-30T00:10:07;11.50;99.90
22436;DHT22;11385;50.822;4.324;2024-01-30T00:12:33;11.60;99.90
22436;DHT22;11385;50.822;4.324;2024-01-30T00:15:00;11.70;99.90
22436;DHT22;11385;50.822;4.324;2024-01-30T00:17:27;11.80;99.90
22436;DHT22;11385;50.822;4.324;2024-01-30T00:19:54;11.70;99.90
22436;DHT22;11385;50.822;4.324;2024-01-30T00:22:20;11.60;99.90
22436;DHT22;11385;50.822;4.324;2024-01-30T00:24:47;11.70;99.90
22436;DHT22;11385;50.822;4.324;2024-01-30T00:27:13;11.70;99.90
22436;DHT22;11385;50.822;4.324;2024-01-30T00:29:40;11.60;99.90
22436;DHT22;11385;50.822;4.324;2024-01-30T00:32:07;11.70;99.90
22436;DHT22;11385;50.822;4.324;2024-01-30T00:34:33;11.70;99.90
22436;DHT22;11385;50.822;4.324;2024-01-30T00:37:00;11.80;99.90
22436;DHT22;11385;50.822;4.324;2024-01-30T00:39:26;11.80;99.90
22436;DHT22;11385;50.822;4.324;2024-01-30T00:41:54;11.80;99.90
22436;DHT22;11385;50.822;4.324;2024-01-30T00:44:20;11.80;99.90
22436;DHT22;11385;50.822;4.324;2024-01-30T00:46:47;11.80;99.90
22436;DHT22;11385;50.822;4.324;2024-01-30T00:49:14;11.80;99.90
22436;DHT22;11385;50.822;4.324;2024-01-30T00:51:40;11.90;99.90
22436;DHT22;11385;50.822;4.324;2024-01-30T00:54:07;11.90;99.90
22436;DHT22;11385;50.822;4.324;2024-01-30T00:56:34;12.00;99.90
22436;DHT22;11385;50.822;4.324;2024-01-30T00:59:00;12.00;99.90
22436;DHT22;11385;50.822;4.324;2024-01-30T01:01:27;12.00;99.90
22436;DHT22;11385;50.822;4.324;2024-01-30T01:03:54;11.90;99.90
22436;DHT22;11385;50.822;4.324;2024-01-30T01:06:20;11.90;99.90
22436;DHT22;11385;50.822;4.324;2024-01-30T01:08:47;12.00;99.90
22436;DHT22;11385;50.822;4.324;2024-01-30T01:11:13;11.90;99.90
22436;DHT22;11385;50.822;4.324;2024-01-30T01:13:40;11.80;99.90
22436;DHT22;11385;50.822;4.324;2024-01-30T01:16:07;11.90;99.90
22436;DHT22;11385;50.822;4.324;2024-01-30T01:18:33;11.80;99.90
22436;DHT22;11385;50.822;4.324;2024-01-30T01:21:00;11.90;99.90
22436;DHT22;11385;50.822;4.324;2024-01-30T01:23:27;12.00;99.90
22436;DHT22;11385;50.822;4.324;2024-01-30T01:25:53;12.00;99.90
22436;DHT22;11385;50.822;4.324;2024-01-30T01:28:21;12.00;99.90
22436;DHT22;11385;50.822;4.324;2024-01-30T01:30:48;12.00;99.90
22436;DHT22;11385;50.822;4.324;2024-01-30T01:33:16;12.00;99.90
22436;DHT22;11385;50.822;4.324;2024-01-30T01:35:43;12.00;99.90
22436;DHT22;11385;50.822;4.324;2024-01-30T01:38:10;12.00;99.90
22436;DHT22;11385;50.822;4.324;2024-01-30T01:40:37;12.10;99.90
22436;DHT22;11385;50.822;4.324;2024-01-30T01:43:05;12.10;99.90
22436;DHT22;11385;50.822;4.324;2024-01-30T01:45:32;12.10;99.90
22436;DHT22;11385;50.822;4.324;2024-01-30T01:47:59;12.10;99.90
22436;DHT22;11385;50.822;4.324;2024-01-30T01:50:26;12.10;99.90
22436;DHT22;11385;50.822;4.324;2024-01-30T01:52:53;12.10;99.90
22436;DHT22;11385;50.822;4.324;2024-01-30T01:55:21;12.10;99.90
22436;DHT22;11385;50.822;4.324;2024-01-30T01:57:50;12.10;99.90
22436;DHT22;11385;50.822;4.324;2024-01-30T02:00:18;12.10;99.90
22436;DHT22;11385;50.822;4.324;2024-01-30T02:02:46;12.10;99.90
22436;DHT22;11385;50.822;4.324;2024-01-30T02:05:14;12.00;99.90
22436;DHT22;11385;50.822;4.324;2024-01-30T02:07:41;12.00;99.90
22436;DHT22;11385;50.822;4.324;2024-01-30T02:10:09;12.10;99.90
22436;DHT22;11385;50.822;4.324;2024-01-30T02:12:36;12.00;99.90
22436;DHT22;11385;50.822;4.324;2024-01-30T02:15:03;12.00;99.90
22436;DHT22;11385;50.822;4.324;2024-01-30T02:17:32;12.10;99.90
22436;DHT22;11385;50.822;4.324;2024-01-30T02:19:59;12.10;99.90
22436;DHT22;11385;50.822;4.324;2024-01-30T02:22:26;12.10;99.90
22436;DHT22;11385;50.822;4.324;2024-01-30T02:24:53;12.10;99.90
22436;DHT22;11385;50.822;4.324;2024-01-30T02:27:19;12.10;99.90
22436;DHT22;11385;50.822;4.324;2024-01-30T02:29:46;12.20;99.90
22436;DHT22;11385;50.822;4.324;2024-01-30T02:32:12;12.20;99.90
22436;DHT22;11385;50.822;4.324;2024-01-30T02:34:39;12.20;99.90
22436;DHT22;11385;50.822;4.324;2024-01-30T02:37:06;12.20;99.90
22436;DHT22;11385;50.822;4.324;2024-01-30T02:39:32;12.20;99.90
22436;DHT22;11385;50.822;4.324;2024-01-30T02:41:59;12.20;99.90
22436;DHT22;11385;50.822;4.324;2024-01-30T02:44:26;12.20;99.90
22436;DHT22;11385;50.822;4.324;2024-01-30T02:46:52;12.20;99.90
22436;DHT22;11385;50.822;4.324;2024-01-30T02:49:20;12.20;99.90
22436;DHT22;11385;50.822;4.324;2024-01-30T02:51:47;12.20;99.90
22436;DHT22;11385;50.822;4.324;2024-01-30T02:54:14;12.30;99.90
22436;DHT22;11385;50.822;4.324;2024-01-30T02:56:40;12.10;99.90
22436;DHT22;11385;50.822;4.324;2024-01-30T02:59:07;12.10;99.90
22436;DHT22;11385;50.822;4.324;2024-01-30T03:01:41;12.10;99.90
22436;DHT22;11385;50.822;4.324;2024-01-30T03:04:02;12.10;99.90
22436;DHT22;11385;50.822;4.324;2024-01-30T03:06:29;12.20;99.90
22436;DHT22;11385;50.822;4.324;2024-01-30T03:08:55;12.20;99.90
22436;DHT22;11385;50.822;4.324;2024-01-30T03:11:22;12.20;99.90
22436;DHT22;11385;50.822;4.324;2024-01-30T03:13:48;12.20;99.90
22436;DHT22;11385;50.822;4.324;2024-01-30T03:16:15;12.10;99.90
22436;DHT22;11385;50.822;4.324;2024-01-30T03:18:42;12.10;99.90
22436;DHT22;11385;50.822;4.324;2024-01-30T03:21:08;12.00;99.90
22436;DHT22;11385;50.822;4.324;2024-01-30T03:23:35;12.00;99.90
22436;DHT22;11385;50.822;4.324;2024-01-30T03:26:02;12.00;99.90
22436;DHT22;11385;50.822;4.324;2024-01-30T03:28:30;12.10;99.90
22436;DHT22;11385;50.822;4.324;2024-01-30T03:30:57;12.00;99.90
22436;DHT22;11385;50.822;4.324;2024-01-30T03:33:23;12.00;99.90
22436;DHT22;11385;50.822;4.324;2024-01-30T03:35:50;12.00;99.90
22436;DHT22;11385;50.822;4.324;2024-01-30T03:38:17;12.00;99.90
22436;DHT22;11385;50.822;4.324;2024-01-30T03:40:43;12.00;99.90
22436;DHT22;11385;50.822;4.324;2024-01-30T03:43:13;12.10;99.90
22436;DHT22;11385;50.822;4.324;2024-01-30T03:45:40;12.10;99.90
22436;DHT22;11385;50.822;4.324;2024-01-30T03:48:07;12.10;99.90
22436;DHT22;11385;50.822;4.324;2024-01-30T03:50:33;12.10;99.90
22436;DHT22;11385;50.822;4.324;2024-01-30T03:53:00;12.20;99.90
22436;DHT22;11385;50.822;4.324;2024-01-30T03:55:27;12.20;99.90
22436;DHT22;11385;50.822;4.324;2024-01-30T03:57:53;12.30;99.90
22436;DHT22;11385;50.822;4.324;2024-01-30T04:00:20;12.20;99.90
22436;DHT22;11385;50.822;4.324;2024-01-30T04:02:46;12.20;99.90
22436;DHT22;11385;50.822;4.324;2024-01-30T04:05:13;12.30;99.90
22436;DHT22;11385;50.822;4.324;2024-01-30T04:07:40;12.20;99.90
22436;DHT22;11385;50.822;4.324;2024-01-30T04:10:07;12.10;99.90
22436;DHT22;11385;50.822;4.324;2024-01-30T04:12:34;12.10;99.90
22436;DHT22;11385;50.822;4.324;2024-01-30T04:15:00;12.00;99.90
22436;DHT22;11385;50.822;4.324;2024-01-30T04:17:27;12.00;99.90
22436;DHT22;11385;50.822;4.324;2024-01-30T04:19:55;12.20;99.90
22436;DHT22;11385;50.822;4.324;2024-01-30T04:22:21;12.20;99.90
22436;DHT22;11385;50.822;4.324;2024-01-30T04:24:48;12.10;99.90
22436;DHT22;11385;50.822;4.324;2024-01-30T04:27:15;12.10;99.90
22436;DHT22;11385;50.822;4.324;2024-01-30T04:29:42;12.10;99.90
22436;DHT22;11385;50.822;4.324;2024-01-30T04:32:09;12.10;99.90
22436;DHT22;11385;50.822;4.324;2024-01-30T04:34:36;12.00;99.90
22436;DHT22;11385;50.822;4.324;2024-01-30T04:37:03;12.00;99.90
22436;DHT22;11385;50.822;4.324;2024-01-30T04:39:30;11.90;99.90
22436;DHT22;11385;50.822;4.324;2024-01-30T04:41:56;12.00;99.90
22436;DHT22;11385;50.822;4.324;2024-01-30T04:44:23;11.90;99.90
22436;DHT22;11385;50.822;4.324;2024-01-30T04:46:50;12.00;99.90
22436;DHT22;11385;50.822;4.324;2024-01-30T04:49:16;12.10;99.90
22436;DHT22;11385;50.822;4.324;2024-01-30T04:51:43;12.10;99.90
22436;DHT22;11385;50.822;4.324;2024-01-30T04:54:09;12.20;99.90
22436;DHT22;11385;50.822;4.324;2024-01-30T04:56:36;12.20;99.90
22436;DHT22;11385;50.822;4.324;2024-01-30T04:59:03;12.20;99.90
22436;DHT22;11385;50.822;4.324;2024-01-30T05:01:30;12.00;99.90
22436;DHT22;11385;50.822;4.324;2024-01-30T05:03:57;12.10;99.90
22436;DHT22;11385;50.822;4.324;2024-01-30T05:06:25;12.00;99.90
22436;DHT22;11385;50.822;4.324;2024-01-30T05:08:52;12.20;99.90
22436;DHT22;11385;50.822;4.324;2024-01-30T05:11:18;12.20;99.90
22436;DHT22;11385;50.822;4.324;2024-01-30T05:13:45;12.20;99.90
22436;DHT22;11385;50.822;4.324;2024-01-30T05:16:12;12.00;99.90
22436;DHT22;11385;50.822;4.324;2024-01-30T05:18:39;12.00;99.90
22436;DHT22;11385;50.822;4.324;2024-01-30T05:21:06;12.10;99.90
22436;DHT22;11385;50.822;4.324;2024-01-30T05:23:32;12.10;99.90
22436;DHT22;11385;50.822;4.324;2024-01-30T05:25:59;12.10;99.90
22436;DHT22;11385;50.822;4.324;2024-01-30T05:28:27;12.10;99.90
22436;DHT22;11385;50.822;4.324;2024-01-30T05:30:53;12.00;99.90
22436;DHT22;11385;50.822;4.324;2024-01-30T05:33:20;12.10;99.90
22436;DHT22;11385;50.822;4.324;2024-01-30T05:35:46;12.10;99.90
22436;DHT22;11385;50.822;4.324;2024-01-30T05:38:16;12.10;99.90
22436;DHT22;11385;50.822;4.324;2024-01-30T05:40:42;12.10;99.90
22436;DHT22;11385;50.822;4.324;2024-01-30T05:43:09;12.10;99.90
22436;DHT22;11385;50.822;4.324;2024-01-30T05:45:36;12.10;99.90
22436;DHT22;11385;50.822;4.324;2024-01-30T05:48:02;12.10;99.90
22436;DHT22;11385;50.822;4.324;2024-01-30T05:50:29;12.00;99.90
22436;DHT22;11385;50.822;4.324;2024-01-30T05:52:56;11.90;99.90
22436;DHT22;11385;50.822;4.324;2024-01-30T05:55:23;11.90;99.90
22436;DHT22;11385;50.822;4.324;2024-01-30T05:57:49;11.90;99.90
22436;DHT22;11385;50.822;4.324;2024-01-30T06:00:18;11.90;99.90
22436;DHT22;11385;50.822;4.324;2024-01-30T06:02:45;12.00;99.90
22436;DHT22;11385;50.822;4.324;2024-01-30T06:05:11;12.00;99.90
22436;DHT22;11385;50.822;4.324;2024-01-30T06:07:38;12.00;99.90
22436;DHT22;11385;50.822;4.324;2024-01-30T06:10:05;12.00;99.90
22436;DHT22;11385;50.822;4.324;2024-01-30T06:12:33;11.90;99.90
22436;DHT22;11385;50.822;4.324;2024-01-30T06:14:59;12.00;99.90
22436;DHT22;11385;50.822;4.324;2024-01-30T06:17:26;12.00;99.90
22436;DHT22;11385;50.822;4.324;2024-01-30T06:19:52;12.00;99.90
22436;DHT22;11385;50.822;4.324;2024-01-30T06:22:19;11.90;99.90
22436;DHT22;11385;50.822;4.324;2024-01-30T06:24:46;12.00;99.90
22436;DHT22;11385;50.822;4.324;2024-01-30T06:27:15;12.00;99.90
22436;DHT22;11385;50.822;4.324;2024-01-30T06:29:43;12.10;99.90
22436;DHT22;11385;50.822;4.324;2024-01-30T06:32:10;12.00;99.90
22436;DHT22;11385;50.822;4.324;2024-01-30T06:34:36;12.00;99.90
22436;DHT22;11385;50.822;4.324;2024-01-30T06:37:04;11.80;99.90
22436;DHT22;11385;50.822;4.324;2024-01-30T06:39:31;11.80;99.90
22436;DHT22;11385;50.822;4.324;2024-01-30T06:41:58;11.80;99.90
22436;DHT22;11385;50.822;4.324;2024-01-30T06:44:24;11.90;99.90
22436;DHT22;11385;50.822;4.324;2024-01-30T06:46:51;12.00;99.90
22436;DHT22;11385;50.822;4.324;2024-01-30T06:49:18;12.00;99.90
22436;DHT22;11385;50.822;4.324;2024-01-30T06:51:45;11.90;99.90
22436;DHT22;11385;50.822;4.324;2024-01-30T06:54:11;11.80;99.90
22436;DHT22;11385;50.822;4.324;2024-01-30T06:56:38;11.80;99.90
22436;DHT22;11385;50.822;4.324;2024-01-30T06:59:05;11.70;99.90
22436;DHT22;11385;50.822;4.324;2024-01-30T07:01:32;11.70;99.90
22436;DHT22;11385;50.822;4.324;2024-01-30T07:03:58;11.80;99.90
22436;DHT22;11385;50.822;4.324;2024-01-30T07:06:25;11.70;99.90
22436;DHT22;11385;50.822;4.324;2024-01-30T07:08:52;11.60;99.90
22436;DHT22;11385;50.822;4.324;2024-01-30T07:11:19;11.80;99.90
22436;DHT22;11385;50.822;4.324;2024-01-30T07:13:48;11.80;99.90
22436;DHT22;11385;50.822;4.324;2024-01-30T07:16:15;11.80;99.90
22436;DHT22;11385;50.822;4.324;2024-01-30T07:18:41;11.80;99.90
22436;DHT22;11385;50.822;4.324;2024-01-30T07:21:08;12.00;99.90
22436;DHT22;11385;50.822;4.324;2024-01-30T07:23:35;12.10;99.90
22436;DHT22;11385;50.822;4.324;2024-01-30T07:26:04;12.10;99.90
22436;DHT22;11385;50.822;4.324;2024-01-30T07:28:32;12.00;99.90
22436;DHT22;11385;50.822;4.324;2024-01-30T07:30:59;11.90;99.90
22436;DHT22;11385;50.822;4.324;2024-01-30T07:33:26;12.00;99.90
22436;DHT22;11385;50.822;4.324;2024-01-30T07:35:53;12.00;99.90
22436;DHT22;11385;50.822;4.324;2024-01-30T07:38:20;12.10;99.90
22436;DHT22;11385;50.822;4.324;2024-01-30T07:40:47;12.10;99.90
22436;DHT22;11385;50.822;4.324;2024-01-30T07:43:13;11.90;99.90
22436;DHT22;11385;50.822;4.324;2024-01-30T07:45:40;11.80;99.90
22436;DHT22;11385;50.822;4.324;2024-01-30T07:48:07;11.90;99.90
22436;DHT22;11385;50.822;4.324;2024-01-30T07:50:33;11.90;99.90
22436;DHT22;11385;50.822;4.324;2024-01-30T07:53:00;12.00;99.90
22436;DHT22;11385;50.822;4.324;2024-01-30T07:55:27;12.20;99.90
22436;DHT22;11385;50.822;4.324;2024-01-30T07:57:55;12.20;99.90
22436;DHT22;11385;50.822;4.324;2024-01-30T08:00:22;12.30;99.90
22436;DHT22;11385;50.822;4.324;2024-01-30T08:02:48;12.30;99.90
22436;DHT22;11385;50.822;4.324;2024-01-30T08:05:15;12.20;99.90
22436;DHT22;11385;50.822;4.324;2024-01-30T08:07:42;12.40;99.90
22436;DHT22;11385;50.822;4.324;2024-01-30T08:10:12;12.60;99.90
22436;DHT22;11385;50.822;4.324;2024-01-30T08:12:39;12.40;99.90
22436;DHT22;11385;50.822;4.324;2024-01-30T08:15:07;12.30;99.90
22436;DHT22;11385;50.822;4.324;2024-01-30T08:17:34;12.20;99.90
22436;DHT22;11385;50.822;4.324;2024-01-30T08:20:01;12.10;99.90
22436;DHT22;11385;50.822;4.324;2024-01-30T08:22:30;12.00;99.90
22436;DHT22;11385;50.822;4.324;2024-01-30T08:24:57;12.00;99.90
22436;DHT22;11385;50.822;4.324;2024-01-30T08:27:24;12.00;99.90
22436;DHT22;11385;50.822;4.324;2024-01-30T08:29:50;12.10;99.90
22436;DHT22;11385;50.822;4.324;2024-01-30T08:32:17;12.20;99.90
22436;DHT22;11385;50.822;4.324;2024-01-30T08:34:44;12.10;99.90
22436;DHT22;11385;50.822;4.324;2024-01-30T08:37:10;12.00;99.90
22436;DHT22;11385;50.822;4.324;2024-01-30T08:39:37;12.10;99.90
22436;DHT22;11385;50.822;4.324;2024-01-30T08:42:05;12.00;99.90
22436;DHT22;11385;50.822;4.324;2024-01-30T08:44:31;12.00;99.90
22436;DHT22;11385;50.822;4.324;2024-01-30T08:46:58;12.00;99.90
22436;DHT22;11385;50.822;4.324;2024-01-30T08:49:24;12.20;99.90
22436;DHT22;11385;50.822;4.324;2024-01-30T08:51:56;12.10;99.90
22436;DHT22;11385;50.822;4.324;2024-01-30T08:54:23;12.20;99.90
22436;DHT22;11385;50.822;4.324;2024-01-30T08:56:51;12.20;99.90
22436;DHT22;11385;50.822;4.324;2024-01-30T08:59:22;12.20;99.90
22436;DHT22;11385;50.822;4.324;2024-01-30T09:01:48;12.20;99.90
22436;DHT22;11385;50.822;4.324;2024-01-30T09:04:17;12.30;99.90
22436;DHT22;11385;50.822;4.324;2024-01-30T09:06:44;12.40;99.90
22436;DHT22;11385;50.822;4.324;2024-01-30T09:09:11;12.30;99.90
22436;DHT22;11385;50.822;4.324;2024-01-30T09:11:39;12.30;99.90
22436;DHT22;11385;50.822;4.324;2024-01-30T09:14:05;12.20;99.90
22436;DHT22;11385;50.822;4.324;2024-01-30T09:16:33;12.30;99.90
22436;DHT22;11385;50.822;4.324;2024-01-30T09:19:00;12.30;99.90
22436;DHT22;11385;50.822;4.324;2024-01-30T09:21:27;12.30;99.90
22436;DHT22;11385;50.822;4.324;2024-01-30T09:23:54;12.40;99.90
22436;DHT22;11385;50.822;4.324;2024-01-30T09:26:23;12.40;99.90
22436;DHT22;11385;50.822;4.324;2024-01-30T09:28:50;12.20;99.90
22436;DHT22;11385;50.822;4.324;2024-01-30T09:31:16;12.30;99.90
22436;DHT22;11385;50.822;4.324;2024-01-30T09:33:43;12.40;99.90
22436;DHT22;11385;50.822;4.324;2024-01-30T09:36:12;12.30;99.90
22436;DHT22;11385;50.822;4.324;2024-01-30T09:38:40;12.30;99.90
22436;DHT22;11385;50.822;4.324;2024-01-30T09:41:09;12.40;99.90
22436;DHT22;11385;50.822;4.324;2024-01-30T09:43:38;12.30;99.90
22436;DHT22;11385;50.822;4.324;2024-01-30T09:46:10;12.20;99.90
22436;DHT22;11385;50.822;4.324;2024-01-30T09:48:37;12.10;99.90
22436;DHT22;11385;50.822;4.324;2024-01-30T09:51:04;12.10;99.90
22436;DHT22;11385;50.822;4.324;2024-01-30T09:53:31;12.00;99.90
22436;DHT22;11385;50.822;4.324;2024-01-30T09:55:58;12.00;99.90
22436;DHT22;11385;50.822;4.324;2024-01-30T09:58:25;12.00;99.90
22436;DHT22;11385;50.822;4.324;2024-01-30T10:00:52;12.10;99.90
22436;DHT22;11385;50.822;4.324;2024-01-30T10:03:20;12.10;99.90
22436;DHT22;11385;50.822;4.324;2024-01-30T10:05:51;12.20;99.90
22436;DHT22;11385;50.822;4.324;2024-01-30T10:08:19;12.10;99.90
22436;DHT22;11385;50.822;4.324;2024-01-30T10:10:47;12.00;99.90
22436;DHT22;11385;50.822;4.324;2024-01-30T10:13:14;12.10;99.90
22436;DHT22;11385;50.822;4.324;2024-01-30T10:15:41;12.20;99.90
22436;DHT22;11385;50.822;4.324;2024-01-30T10:18:09;12.20;99.90
22436;DHT22;11385;50.822;4.324;2024-01-30T10:20:36;12.00;99.90
22436;DHT22;11385;50.822;4.324;2024-01-30T10:23:03;12.00;99.90
22436;DHT22;11385;50.822;4.324;2024-01-30T10:25:31;11.90;99.90
22436;DHT22;11385;50.822;4.324;2024-01-30T10:27:59;11.90;99.90
22436;DHT22;11385;50.822;4.324;2024-01-30T10:30:26;11.90;99.90
22436;DHT22;11385;50.822;4.324;2024-01-30T10:32:54;12.00;99.90
22436;DHT22;11385;50.822;4.324;2024-01-30T10:35:21;11.80;99.90
22436;DHT22;11385;50.822;4.324;2024-01-30T10:37:48;12.00;99.90
22436;DHT22;11385;50.822;4.324;2024-01-30T10:40:15;11.80;99.90
22436;DHT22;11385;50.822;4.324;2024-01-30T10:42:45;11.80;99.90
22436;DHT22;11385;50.822;4.324;2024-01-30T10:45:13;11.90;99.90
22436;DHT22;11385;50.822;4.324;2024-01-30T10:47:44;12.00;99.90
22436;DHT22;11385;50.822;4.324;2024-01-30T10:50:12;12.10;99.90
22436;DHT22;11385;50.822;4.324;2024-01-30T10:52:41;12.00;99.90
22436;DHT22;11385;50.822;4.324;2024-01-30T10:55:10;12.10;99.90
22436;DHT22;11385;50.822;4.324;2024-01-30T10:57:37;12.00;99.90
22436;DHT22;11385;50.822;4.324;2024-01-30T11:00:06;12.10;99.90
22436;DHT22;11385;50.822;4.324;2024-01-30T11:02:39;12.00;99.90
22436;DHT22;11385;50.822;4.324;2024-01-30T11:05:06;11.90;99.90
22436;DHT22;11385;50.822;4.324;2024-01-30T11:07:34;11.90;99.90
22436;DHT22;11385;50.822;4.324;2024-01-30T11:10:03;11.90;99.90
22436;DHT22;11385;50.822;4.324;2024-01-30T11:12:32;11.80;99.90
22436;DHT22;11385;50.822;4.324;2024-01-30T11:15:05;11.70;99.90
22436;DHT22;11385;50.822;4.324;2024-01-30T11:17:41;11.40;99.90
22436;DHT22;11385;50.822;4.324;2024-01-30T11:20:14;11.40;99.90
22436;DHT22;11385;50.822;4.324;2024-01-30T11:22:44;11.40;99.90
22436;DHT22;11385;50.822;4.324;2024-01-30T11:25:13;11.40;99.90
22436;DHT22;11385;50.822;4.324;2024-01-30T11:27:42;11.50;99.90
22436;DHT22;11385;50.822;4.324;2024-01-30T11:30:09;11.40;99.90
22436;DHT22;11385;50.822;4.324;2024-01-30T11:32:36;11.50;99.90
22436;DHT22;11385;50.822;4.324;2024-01-30T11:35:04;11.50;99.90
22436;DHT22;11385;50.822;4.324;2024-01-30T11:37:35;11.60;99.90
22436;DHT22;11385;50.822;4.324;2024-01-30T11:40:03;11.60;99.90
22436;DHT22;11385;50.822;4.324;2024-01-30T11:42:30;11.80;99.90
22436;DHT22;11385;50.822;4.324;2024-01-30T11:45:00;11.90;99.90
22436;DHT22;11385;50.822;4.324;2024-01-30T11:47:29;11.90;99.90
22436;DHT22;11385;50.822;4.324;2024-01-30T11:49:56;11.80;99.90
22436;DHT22;11385;50.822;4.324;2024-01-30T11:52:23;11.70;99.90
22436;DHT22;11385;50.822;4.324;2024-01-30T11:54:50;11.70;99.90
22436;DHT22;11385;50.822;4.324;2024-01-30T11:57:16;11.70;99.90
22436;DHT22;11385;50.822;4.324;2024-01-30T11:59:43;11.70;99.90
22436;DHT22;11385;50.822;4.324;2024-01-30T12:02:15;12.00;99.90
22436;DHT22;11385;50.822;4.324;2024-01-30T12:04:40;12.00;99.90
22436;DHT22;11385;50.822;4.324;2024-01-30T12:07:07;12.00;99.90
22436;DHT22;11385;50.822;4.324;2024-01-30T12:09:34;11.80;99.90
22436;DHT22;11385;50.822;4.324;2024-01-30T12:12:00;11.80;99.90
22436;DHT22;11385;50.822;4.324;2024-01-30T12:14:27;11.70;99.90
22436;DHT22;11385;50.822;4.324;2024-01-30T12:16:54;11.50;99.90
22436;DHT22;11385;50.822;4.324;2024-01-30T12:19:24;11.50;99.90
22436;DHT22;11385;50.822;4.324;2024-01-30T12:21:55;11.50;99.90
22436;DHT22;11385;50.822;4.324;2024-01-30T12:24:22;11.90;99.90
22436;DHT22;11385;50.822;4.324;2024-01-30T12:26:49;11.90;99.90
22436;DHT22;11385;50.822;4.324;2024-01-30T12:29:17;11.90;99.90
22436;DHT22;11385;50.822;4.324;2024-01-30T12:31:44;11.90;99.90
22436;DHT22;11385;50.822;4.324;2024-01-30T12:34:14;12.10;99.90
22436;DHT22;11385;50.822;4.324;2024-01-30T12:36:43;12.40;99.90
22436;DHT22;11385;50.822;4.324;2024-01-30T12:39:11;12.30;99.90
22436;DHT22;11385;50.822;4.324;2024-01-30T12:41:40;12.10;99.90
22436;DHT22;11385;50.822;4.324;2024-01-30T12:44:07;12.00;99.90
22436;DHT22;11385;50.822;4.324;2024-01-30T12:46:35;11.80;99.90
22436;DHT22;11385;50.822;4.324;2024-01-30T12:49:01;11.90;99.90
22436;DHT22;11385;50.822;4.324;2024-01-30T12:51:28;11.90;99.90
22436;DHT22;11385;50.822;4.324;2024-01-30T12:53:55;11.90;99.90
22436;DHT22;11385;50.822;4.324;2024-01-30T12:56:22;12.00;99.90
22436;DHT22;11385;50.822;4.324;2024-01-30T12:58:48;11.90;99.90
22436;DHT22;11385;50.822;4.324;2024-01-30T13:01:15;11.80;99.90
22436;DHT22;11385;50.822;4.324;2024-01-30T13:03:42;11.80;99.90
22436;DHT22;11385;50.822;4.324;2024-01-30T13:06:08;11.80;99.90
22436;DHT22;11385;50.822;4.324;2024-01-30T13:08:35;11.90;99.90
22436;DHT22;11385;50.822;4.324;2024-01-30T13:11:01;11.80;99.90
22436;DHT22;11385;50.822;4.324;2024-01-30T13:13:28;11.80;99.90
22436;DHT22;11385;50.822;4.324;2024-01-30T13:15:55;11.70;99.90
22436;DHT22;11385;50.822;4.324;2024-01-30T13:18:21;11.70;99.90
22436;DHT22;11385;50.822;4.324;2024-01-30T13:20:48;11.70;99.90
22436;DHT22;11385;50.822;4.324;2024-01-30T13:23:14;11.80;99.90
22436;DHT22;11385;50.822;4.324;2024-01-30T13:25:41;11.80;99.90
22436;DHT22;11385;50.822;4.324;2024-01-30T13:28:08;11.70;99.90
22436;DHT22;11385;50.822;4.324;2024-01-30T13:30:34;11.80;99.90
22436;DHT22;11385;50.822;4.324;2024-01-30T13:33:01;11.60;99.90
22436;DHT22;11385;50.822;4.324;2024-01-30T13:35:29;11.50;99.90
22436;DHT22;11385;50.822;4.324;2024-01-30T13:37:55;11.50;99.90
22436;DHT22;11385;50.822;4.324;2024-01-30T13:40:22;11.60;99.90
22436;DHT22;11385;50.822;4.324;2024-01-30T13:42:49;11.60;99.90
22436;DHT22;11385;50.822;4.324;2024-01-30T13:45:16;11.60;99.90
22436;DHT22;11385;50.822;4.324;2024-01-30T13:47:43;11.70;99.90
22436;DHT22;11385;50.822;4.324;2024-01-30T13:50:09;11.70;99.90
22436;DHT22;11385;50.822;4.324;2024-01-30T13:52:38;11.50;99.90
22436;DHT22;11385;50.822;4.324;2024-01-30T13:55:04;11.40;99.90
22436;DHT22;11385;50.822;4.324;2024-01-30T13:57:31;11.40;99.90
22436;DHT22;11385;50.822;4.324;2024-01-30T14:00:00;11.30;99.90
22436;DHT22;11385;50.822;4.324;2024-01-30T14:02:26;11.30;99.90
22436;DHT22;11385;50.822;4.324;2024-01-30T14:04:53;11.40;99.90
22436;DHT22;11385;50.822;4.324;2024-01-30T14:07:20;11.30;99.90
22436;DHT22;11385;50.822;4.324;2024-01-30T14:09:48;11.30;99.90
22436;DHT22;11385;50.822;4.324;2024-01-30T14:12:15;11.30;99.90
22436;DHT22;11385;50.822;4.324;2024-01-30T14:14:41;11.20;99.90
22436;DHT22;11385;50.822;4.324;2024-01-30T14:17:08;11.30;99.90
22436;DHT22;11385;50.822;4.324;2024-01-30T14:19:35;11.40;99.90
22436;DHT22;11385;50.822;4.324;2024-01-30T14:22:02;11.30;99.90
22436;DHT22;11385;50.822;4.324;2024-01-30T14:24:28;11.20;99.90
22436;DHT22;11385;50.822;4.324;2024-01-30T14:26:55;11.20;99.90
22436;DHT22;11385;50.822;4.324;2024-01-30T14:29:22;11.10;99.90
22436;DHT22;11385;50.822;4.324;2024-01-30T14:31:48;11.10;99.90
22436;DHT22;11385;50.822;4.324;2024-01-30T14:34:15;11.20;99.90
22436;DHT22;11385;50.822;4.324;2024-01-30T14:36:43;11.20;99.90
22436;DHT22;11385;50.822;4.324;2024-01-30T14:39:10;11.30;99.90
22436;DHT22;11385;50.822;4.324;2024-01-30T14:41:36;11.10;99.90
22436;DHT22;11385;50.822;4.324;2024-01-30T14:44:03;11.20;99.90
22436;DHT22;11385;50.822;4.324;2024-01-30T14:46:31;11.00;99.90
22436;DHT22;11385;50.822;4.324;2024-01-30T14:48:58;10.80;99.90
22436;DHT22;11385;50.822;4.324;2024-01-30T14:51:25;10.90;99.90
22436;DHT22;11385;50.822;4.324;2024-01-30T14:53:52;10.80;99.90
22436;DHT22;11385;50.822;4.324;2024-01-30T14:56:19;10.70;99.90
22436;DHT22;11385;50.822;4.324;2024-01-30T14:58:46;10.70;99.90
22436;DHT22;11385;50.822;4.324;2024-01-30T15:01:13;10.80;99.90
22436;DHT22;11385;50.822;4.324;2024-01-30T15:03:40;10.70;99.90
22436;DHT22;11385;50.822;4.324;2024-01-30T15:06:08;10.50;99.90
22436;DHT22;11385;50.822;4.324;2024-01-30T15:08:35;10.60;99.90
22436;DHT22;11385;50.822;4.324;2024-01-30T15:11:02;10.70;99.90
22436;DHT22;11385;50.822;4.324;2024-01-30T15:13:30;10.70;99.90
22436;DHT22;11385;50.822;4.324;2024-01-30T15:15:58;10.70;99.90
22436;DHT22;11385;50.822;4.324;2024-01-30T15:18:25;10.70;99.90
22436;DHT22;11385;50.822;4.324;2024-01-30T15:20:51;10.70;99.90
22436;DHT22;11385;50.822;4.324;2024-01-30T15:23:18;10.60;99.90
22436;DHT22;11385;50.822;4.324;2024-01-30T15:25:44;10.40;99.90
22436;DHT22;11385;50.822;4.324;2024-01-30T15:28:12;10.40;99.90